Aérodrome :
LOGIN :

S'inscrire | Disclaimer

   EN    FR    IT 

 










Légende :    VFR   VFR Marginal   IFR   IFR Intensif   IFR Très Intensif
Visi : 
Plafond : 
>= 8 km
>= 3000ft
5 à 8 km
1000 à 3000 ft
1500m à 5 km
500 à 1000 ft
800 à 1500m
200 à 500 ft
< 800m
< 200 ft
Symboles :   Orages  Brouillard  Fortes neiges  Fortes précipitations  Vent > 20 kt
SIGMETs :   Divers  Orages  Givrage  Turbulence  Onde Orograph.  Cendres Volcan.






- Altitude de l'aérodrome : 102 ft
- Code IATA : EXT


EGTE - Exeter

DERNIER METAR :
  • 191020Z 27008KT 250V310 9999 FEW015 FEW030CB 12/07 Q1001

METARs EXPIRÉS :
  • 190950Z 23005KT 200V290 9999 FEW015 FEW030CB 13/10 Q1001
  • 190920Z 21007KT 9999 FEW015 FEW025CB 12/09 Q1000
  • 190850Z 19004KT 9999 FEW025CB 11/09 Q1000
  • 190820Z 18003KT 9999 FEW025CB 10/08 Q1000
  • 190750Z 18004KT 9999 FEW025CB 09/09 Q1000

TAF TAF EGTE
Valide du 19 à 09h jusqu'au 19 à 18h UTC


190759Z 1909/1918 28008KT 9999 SCT025
TEMPO 1909/1918 6000 SHRA



MET'MAP, la Météo Aéronautique d'un coup d'oeil ! - Copyright ORBIFLY Décembre 2007 - Disclaimer

ORBIFLY MET'MAP TEAM :

Programmation & Développement : Alexandra Zaïnal
Conception & Développement : Baudouin d'Aumeries
Co-Programmation & Développement : Marc-Olivier Méhu
Soutien technique & logistique : Manuel Goepfert

Contact : metmap@orbifly.com




SOURCES & CREDITS :

   NOAA